createdAt,value
2023-05-24T00:01:42.190Z,98301.91
2023-05-24T00:04:45.851Z,98301.22
2023-05-24T00:07:50.841Z,98302.31
2023-05-24T00:10:54.036Z,98306.09
2023-05-24T00:13:57.228Z,98303.44
2023-05-24T00:17:00.592Z,98295.59
2023-05-24T00:20:06.667Z,98300.94
2023-05-24T00:23:12.073Z,98300.22
2023-05-24T00:26:15.280Z,98290.69
2023-05-24T00:29:25.935Z,98290.91
2023-05-24T00:32:29.829Z,98288.09
2023-05-24T00:35:33.829Z,98284.50
2023-05-24T00:38:38.380Z,98281.31
2023-05-24T00:41:41.647Z,98277.66
2023-05-24T00:44:44.858Z,98268.91
2023-05-24T00:47:48.544Z,98281.31
2023-05-24T00:50:51.848Z,98275.16
2023-05-24T00:53:56.548Z,98281.09
2023-05-24T00:56:59.977Z,98277.09
2023-05-24T01:00:04.936Z,98277.78
2023-05-24T01:03:08.682Z,98274.91
2023-05-24T01:06:15.944Z,98267.00
2023-05-24T01:09:34.324Z,98281.31
2023-05-24T01:12:52.758Z,98266.25
2023-05-24T01:16:00.675Z,98264.22
2023-05-24T01:19:13.243Z,98266.94
2023-05-24T01:22:29.673Z,98234.00
2023-05-24T01:25:47.484Z,98263.72
2023-05-24T01:28:52.873Z,98262.03
2023-05-24T01:31:56.270Z,98264.84
2023-05-24T01:34:59.492Z,98256.50
2023-05-24T01:38:02.675Z,98264.63
2023-05-24T01:41:16.413Z,98266.81
2023-05-24T01:44:30.636Z,98260.97
2023-05-24T01:47:48.413Z,98266.38
2023-05-24T01:50:58.381Z,98234.41
2023-05-24T01:54:03.202Z,98263.72
2023-05-24T01:57:09.903Z,98278.41
2023-05-24T02:00:16.788Z,98256.69
2023-05-24T02:03:22.500Z,98270.72
2023-05-24T02:06:25.696Z,98272.72
2023-05-24T02:09:28.892Z,98271.75
2023-05-24T02:12:32.356Z,98272.59
2023-05-24T02:15:37.020Z,98279.50
2023-05-24T02:18:40.304Z,98276.13
2023-05-24T02:21:43.631Z,98285.34
2023-05-24T02:24:48.233Z,98276.75
2023-05-24T02:27:52.061Z,98276.28
2023-05-24T02:30:56.798Z,98277.56
2023-05-24T02:34:00.342Z,98285.47
2023-05-24T02:37:04.715Z,98278.72
2023-05-24T02:40:09.544Z,98277.25
2023-05-24T02:43:12.792Z,98280.19
2023-05-24T02:46:17.383Z,98277.91
2023-05-24T02:49:20.756Z,98279.44
2023-05-24T02:52:23.957Z,98284.91
2023-05-24T02:55:29.062Z,98157.06
2023-05-24T02:58:32.218Z,98273.03
2023-05-24T03:01:36.861Z,98274.84
2023-05-24T03:04:40.145Z,98281.50
2023-05-24T03:07:46.037Z,98274.69
2023-05-24T03:10:49.191Z,98280.94
2023-05-24T03:13:52.391Z,98281.66
2023-05-24T03:16:57.787Z,98278.53
2023-05-24T03:20:01.301Z,98287.56
2023-05-24T03:23:07.401Z,98272.66
2023-05-24T03:26:10.763Z,98283.53
2023-05-24T03:29:16.251Z,98283.41
2023-05-24T03:34:33.233Z,98293.25
2023-05-24T03:37:36.417Z,98291.69
2023-05-24T03:40:39.689Z,98293.75
2023-05-24T03:43:48.543Z,98294.91
2023-05-24T03:46:53.755Z,98292.69
2023-05-24T03:49:58.616Z,98288.97
2023-05-24T03:53:01.787Z,98286.06
2023-05-24T03:56:05.002Z,98289.50
2023-05-24T03:59:10.672Z,98286.38
2023-05-24T04:02:13.880Z,98294.97
2023-05-24T04:05:18.811Z,98303.09
2023-05-24T04:08:22.256Z,98303.13
2023-05-24T04:11:28.224Z,98309.03
2023-05-24T04:14:31.508Z,98304.22
2023-05-24T04:17:35.319Z,98311.19
2023-05-24T04:20:40.097Z,98296.28
2023-05-24T04:23:43.400Z,98306.19
2023-05-24T04:26:47.762Z,98300.97
2023-05-24T04:29:53.027Z,98303.75
2023-05-24T04:32:56.327Z,98306.84
2023-05-24T04:36:01.918Z,98306.25
2023-05-24T04:39:05.653Z,98304.00
2023-05-24T04:42:09.193Z,98301.13
2023-05-24T04:45:12.764Z,98309.06
2023-05-24T04:48:15.913Z,98300.16
2023-05-24T04:51:20.782Z,98306.97
2023-05-24T04:54:24.024Z,98304.19
2023-05-24T04:57:27.262Z,98304.63
2023-05-24T05:00:30.432Z,98306.41
2023-05-24T05:03:33.838Z,98313.13
2023-05-24T05:06:40.391Z,98308.53
2023-05-24T05:09:43.557Z,98305.41
2023-05-24T05:12:48.094Z,98311.13
2023-05-24T05:15:51.652Z,98307.47
2023-05-24T05:18:55.017Z,98317.16
2023-05-24T05:21:59.531Z,98308.47
2023-05-24T05:25:02.716Z,98305.78
2023-05-24T05:28:08.696Z,98310.41
2023-05-24T05:31:11.865Z,98317.59
2023-05-24T05:34:15.187Z,98323.00
2023-05-24T05:37:19.777Z,98312.53
2023-05-24T05:40:23.007Z,98309.69
2023-05-24T05:43:26.293Z,98313.84
2023-05-24T05:46:29.549Z,98318.88
2023-05-24T05:49:36.186Z,98320.81
2023-05-24T05:52:41.001Z,98315.53
2023-05-24T05:55:44.217Z,98329.00
2023-05-24T05:58:47.426Z,98327.00
2023-05-24T06:01:51.229Z,98320.19
2023-05-24T06:04:54.568Z,98332.47
2023-05-24T06:07:59.243Z,98344.03
2023-05-24T06:11:02.812Z,98351.53
2023-05-24T06:14:11.439Z,98347.31
2023-05-24T06:17:14.638Z,98342.91
2023-05-24T06:20:17.960Z,98344.22
2023-05-24T06:23:23.359Z,98338.63
2023-05-24T06:26:27.010Z,98346.25
2023-05-24T06:29:30.200Z,98343.69
2023-05-24T06:32:33.342Z,98347.84
2023-05-24T06:35:36.584Z,98353.03
2023-05-24T06:38:41.187Z,98358.91
2023-05-24T06:41:46.156Z,98364.84
2023-05-24T06:44:49.344Z,98367.34
2023-05-24T06:47:52.775Z,98368.28
2023-05-24T06:50:56.025Z,98367.88
2023-05-24T06:54:01.052Z,98379.03
2023-05-24T06:57:05.507Z,98376.13
2023-05-24T07:00:12.438Z,98370.13
2023-05-24T07:03:15.926Z,98373.41
2023-05-24T07:06:19.167Z,98373.13
2023-05-24T07:09:23.929Z,98377.53
2023-05-24T07:12:27.272Z,98383.03
2023-05-24T07:15:30.652Z,98385.50
2023-05-24T07:18:34.073Z,98382.53
2023-05-24T07:21:37.482Z,98385.25
2023-05-24T07:24:42.121Z,98372.53
2023-05-24T07:27:45.272Z,98385.53
2023-05-24T07:30:48.926Z,98392.13
2023-05-24T07:33:52.353Z,98386.44
2023-05-24T07:36:55.592Z,98386.28
2023-05-24T07:40:00.398Z,98396.28
2023-05-24T07:43:04.352Z,98387.22
2023-05-24T07:46:08.241Z,98383.91
2023-05-24T07:49:11.631Z,98389.63
2023-05-24T07:52:15.114Z,98388.19
2023-05-24T07:55:19.689Z,98386.81
2023-05-24T07:58:22.809Z,98381.09
2023-05-24T08:01:26.230Z,98390.78
2023-05-24T08:04:32.938Z,98388.41
2023-05-24T08:07:36.244Z,98386.78
2023-05-24T08:10:40.749Z,98391.19
2023-05-24T08:13:45.018Z,98391.25
2023-05-24T08:16:48.374Z,98390.59
2023-05-24T08:19:51.649Z,98392.78
2023-05-24T08:22:54.940Z,98395.34
2023-05-24T08:25:59.529Z,98399.75
2023-05-24T08:29:02.922Z,98399.69
2023-05-24T08:32:09.493Z,98407.41
2023-05-24T08:35:20.743Z,98404.91
2023-05-24T08:38:24.639Z,98406.09
2023-05-24T08:41:29.901Z,98412.19
2023-05-24T08:44:38.970Z,98405.22
2023-05-24T08:47:43.410Z,98411.19
2023-05-24T08:50:48.140Z,98399.63
2023-05-24T08:53:51.917Z,98417.88
2023-05-24T08:56:56.652Z,98415.16
2023-05-24T09:00:00.325Z,98418.19
2023-05-24T09:03:05.961Z,98420.22
2023-05-24T09:06:10.605Z,98413.94
2023-05-24T09:09:14.910Z,98428.59
2023-05-24T09:12:35.350Z,98424.66
2023-05-24T09:15:40.692Z,98425.72
2023-05-24T09:18:43.872Z,98429.06
2023-05-24T09:21:47.426Z,98426.16
2023-05-24T09:24:51.423Z,98443.47
2023-05-24T09:27:57.054Z,98428.16
2023-05-24T09:34:39.686Z,98443.63
2023-05-24T09:37:42.957Z,98427.88
2023-05-24T09:40:46.763Z,98435.63
2023-05-24T09:43:50.861Z,98428.16
2023-05-24T09:46:54.106Z,98423.50
2023-05-24T09:49:58.997Z,98437.31
2023-05-24T09:53:03.934Z,98430.75
2023-05-24T09:56:08.529Z,98429.88
2023-05-24T09:59:12.073Z,98435.16
2023-05-24T10:02:18.473Z,98431.94
2023-05-24T10:05:24.375Z,98436.38
2023-05-24T10:08:28.474Z,98431.91
2023-05-24T10:11:33.304Z,98438.84
2023-05-24T10:14:37.830Z,98430.09
2023-05-24T10:17:41.068Z,98431.91
2023-05-24T10:20:46.013Z,98421.03
2023-05-24T10:23:53.587Z,98400.50
2023-05-24T10:26:58.753Z,98415.25
2023-05-24T10:30:13.722Z,98413.44
2023-05-24T10:33:18.572Z,98413.44
2023-05-24T10:36:23.590Z,98412.59
2023-05-24T10:39:27.757Z,98420.66
2023-05-24T10:42:32.346Z,98386.34
2023-05-24T10:45:39.035Z,98398.81
2023-05-24T10:48:42.416Z,98383.06
2023-05-24T10:51:46.892Z,98404.03
2023-05-24T10:55:05.391Z,98411.59
2023-05-24T10:58:08.874Z,98390.44
2023-05-24T11:01:15.050Z,98418.75
2023-05-24T11:04:20.031Z,98418.66
2023-05-24T11:07:25.332Z,98409.50
2023-05-24T11:10:34.076Z,98417.25
2023-05-24T11:13:38.646Z,98417.81
2023-05-24T11:16:41.996Z,98414.91
2023-05-24T11:19:50.812Z,98418.16
2023-05-24T11:22:55.872Z,98411.53
2023-05-24T11:25:59.510Z,98398.53
2023-05-24T11:29:05.009Z,98406.88
2023-05-24T11:32:09.102Z,98415.59
2023-05-24T11:35:12.390Z,98412.59
2023-05-24T11:38:17.752Z,98408.72
2023-05-24T11:41:21.111Z,98409.16
2023-05-24T11:44:24.365Z,98408.75
2023-05-24T11:47:27.998Z,98400.59
2023-05-24T11:50:39.074Z,98401.22
2023-05-24T11:53:54.725Z,98391.69
2023-05-24T11:56:58.989Z,98395.06
2023-05-24T12:00:02.319Z,98396.13
2023-05-24T12:03:10.100Z,98393.38
2023-05-24T12:06:13.591Z,98397.81
2023-05-24T12:09:21.009Z,98389.38
2023-05-24T12:12:30.638Z,98381.78
2023-05-24T12:15:38.028Z,98397.06
2023-05-24T12:18:48.486Z,98376.91
2023-05-24T12:21:59.129Z,98372.91
2023-05-24T12:25:05.240Z,98374.66
2023-05-24T12:28:08.551Z,98372.59
2023-05-24T12:31:12.260Z,98382.47
2023-05-24T12:34:17.517Z,98378.88
2023-05-24T12:37:20.829Z,98375.94
2023-05-24T12:40:25.492Z,98368.44
2023-05-24T12:43:28.678Z,98367.72
2023-05-24T12:46:31.859Z,98364.78
2023-05-24T12:49:35.688Z,98367.41
2023-05-24T12:52:38.835Z,98349.59
2023-05-24T12:55:43.408Z,98365.25
2023-05-24T12:58:49.220Z,98333.16
2023-05-24T13:01:52.668Z,98350.28
2023-05-24T13:04:56.326Z,98349.34
2023-05-24T13:07:59.635Z,98344.81
2023-05-24T13:11:04.266Z,98352.63
2023-05-24T13:14:12.375Z,98353.13
2023-05-24T13:17:18.563Z,98351.53
2023-05-24T13:20:22.473Z,98343.63
2023-05-24T13:23:25.685Z,98336.00
2023-05-24T13:26:37.022Z,98340.69
2023-05-24T13:29:52.629Z,98333.75
2023-05-24T13:33:03.670Z,98340.13
2023-05-24T13:36:08.244Z,98329.53
2023-05-24T13:42:18.933Z,98317.25
2023-05-24T13:45:22.667Z,98321.84
2023-05-24T13:48:26.010Z,98315.47
2023-05-24T13:51:30.611Z,98320.28
2023-05-24T13:54:33.832Z,98318.06
2023-05-24T13:57:51.226Z,98320.28
2023-05-24T14:00:56.218Z,98312.66
2023-05-24T14:03:59.657Z,98314.38
2023-05-24T14:07:02.876Z,98303.94
2023-05-24T14:10:07.109Z,98303.47
2023-05-24T14:13:34.214Z,98307.44
2023-05-24T14:16:35.089Z,98304.63
2023-05-24T14:19:38.333Z,98307.28
2023-05-24T14:22:41.659Z,98307.06
2023-05-24T14:25:46.752Z,98299.72
2023-05-24T14:28:53.645Z,98296.63
2023-05-24T14:31:58.707Z,98291.16
2023-05-24T14:35:02.090Z,98289.59
2023-05-24T14:38:06.565Z,98289.22
2023-05-24T14:41:10.072Z,98294.78
2023-05-24T14:44:14.657Z,98287.69
2023-05-24T14:47:17.875Z,98296.44
2023-05-24T14:50:21.437Z,98298.72
2023-05-24T14:53:24.673Z,98286.16
2023-05-24T14:56:28.010Z,98294.78
2023-05-24T14:59:32.568Z,98292.09
2023-05-24T15:02:36.559Z,98295.69
2023-05-24T15:05:41.335Z,98291.31
2023-05-24T15:08:44.528Z,98292.38
2023-05-24T15:11:47.847Z,98299.44
2023-05-24T15:14:52.350Z,98294.44
2023-05-24T15:17:55.700Z,98293.31
2023-05-24T15:20:59.073Z,98294.59
2023-05-24T15:24:02.327Z,98297.84
2023-05-24T15:27:06.069Z,98281.81
2023-05-24T15:30:11.098Z,98299.69
2023-05-24T15:34:32.897Z,98302.75
2023-05-24T15:37:36.563Z,98297.97
2023-05-24T15:40:42.006Z,98270.44
2023-05-24T15:43:45.609Z,98290.97
2023-05-24T15:46:48.844Z,98299.44
2023-05-24T15:49:53.511Z,98295.75
2023-05-24T15:52:56.611Z,98288.81
2023-05-24T15:55:59.917Z,98298.41
2023-05-24T15:59:10.442Z,98295.56
2023-05-24T16:02:14.041Z,98294.44
2023-05-24T16:05:21.051Z,98298.56
2023-05-24T16:08:27.808Z,98289.06
2023-05-24T16:11:31.378Z,98285.31
2023-05-24T16:14:34.636Z,98290.34
2023-05-24T16:17:37.888Z,98284.03
2023-05-24T16:20:42.590Z,98277.78
2023-05-24T16:23:46.336Z,98285.88
2023-05-24T16:26:49.473Z,98287.47
2023-05-24T16:29:52.727Z,98285.91
2023-05-24T16:32:56.045Z,98289.78
2023-05-24T16:36:03.468Z,98291.97
2023-05-24T16:39:07.969Z,98288.81
2023-05-24T16:42:11.177Z,98287.63
2023-05-24T16:45:14.455Z,98294.16
2023-05-24T16:48:18.275Z,98282.38
2023-05-24T16:51:23.059Z,98289.75
2023-05-24T16:54:26.297Z,98289.84
2023-05-24T16:57:29.557Z,98293.75
2023-05-24T17:00:32.734Z,98281.47
2023-05-24T17:03:36.975Z,98283.03
2023-05-24T17:06:42.266Z,98293.50
2023-05-24T17:09:46.279Z,98294.03
2023-05-24T17:12:49.733Z,98298.72
2023-05-24T17:15:53.515Z,98289.47
2023-05-24T17:18:57.113Z,98292.06
2023-05-24T17:22:01.769Z,98297.03
2023-05-24T17:25:08.139Z,98290.69
2023-05-24T17:28:11.239Z,98286.44
2023-05-24T17:31:15.716Z,98296.16
2023-05-24T17:34:19.143Z,98295.72
2023-05-24T17:37:23.582Z,98296.25
2023-05-24T17:40:26.893Z,98277.25
2023-05-24T17:43:32.074Z,98303.50
2023-05-24T17:46:39.718Z,98301.13
2023-05-24T17:49:44.561Z,98308.09
2023-05-24T17:52:49.756Z,98309.53
2023-05-24T17:55:53.186Z,98319.31
2023-05-24T17:58:56.389Z,98319.94
2023-05-24T18:01:59.598Z,98320.94
2023-05-24T18:05:02.975Z,98318.84
2023-05-24T18:08:09.165Z,98326.66
2023-05-24T18:11:13.249Z,98310.41
2023-05-24T18:14:17.140Z,98332.28
2023-05-24T18:17:20.398Z,98321.03
2023-05-24T18:20:23.997Z,98332.44
2023-05-24T18:23:28.716Z,98334.03
2023-05-24T18:26:32.340Z,98339.47
2023-05-24T18:29:36.514Z,98338.09
2023-05-24T18:32:48.857Z,98342.38
2023-05-24T18:35:59.621Z,98347.38
2023-05-24T18:39:04.548Z,98340.78
2023-05-24T18:42:09.056Z,98347.41
2023-05-24T18:45:12.694Z,98355.78
2023-05-24T18:48:16.767Z,98350.44
2023-05-24T18:51:20.006Z,98358.59
2023-05-24T18:54:24.633Z,98357.63
2023-05-24T18:57:29.479Z,98371.75
2023-05-24T19:00:32.697Z,98365.06
2023-05-24T19:03:35.912Z,98366.13
2023-05-24T19:06:39.235Z,98375.44
2023-05-24T19:09:44.237Z,98354.34
2023-05-24T19:12:47.516Z,98372.19
2023-05-24T19:15:50.725Z,98374.50
2023-05-24T19:18:53.870Z,98383.28
2023-05-24T19:21:57.680Z,98396.53
2023-05-24T19:25:02.228Z,98398.97
2023-05-24T19:28:05.413Z,98393.09
2023-05-24T19:31:09.127Z,98407.94
2023-05-24T19:34:12.402Z,98417.16
2023-05-24T19:37:15.808Z,98414.56
2023-05-24T19:40:20.639Z,98424.84
2023-05-24T19:43:23.836Z,98419.88
2023-05-24T19:46:27.570Z,98428.34
2023-05-24T19:49:30.855Z,98435.69
2023-05-24T19:52:34.237Z,98426.94
2023-05-24T19:55:38.745Z,98443.97
2023-05-24T19:58:41.977Z,98436.03
2023-05-24T20:01:45.604Z,98436.59
2023-05-24T20:04:48.816Z,98435.63
2023-05-24T20:07:52.707Z,98437.38
2023-05-24T20:10:57.895Z,98436.78
2023-05-24T20:14:01.072Z,98437.59
2023-05-24T20:17:04.711Z,98446.06
2023-05-24T20:20:09.639Z,98446.25
2023-05-24T20:23:12.766Z,98438.38
2023-05-24T20:26:17.449Z,98442.47
2023-05-24T20:29:21.280Z,98438.56
2023-05-24T20:32:24.457Z,98443.69
2023-05-24T20:35:27.821Z,98443.28
2023-05-24T20:38:31.678Z,98447.16
2023-05-24T20:41:36.699Z,98455.22
2023-05-24T20:44:39.925Z,98452.56
2023-05-24T20:47:43.116Z,98453.59
2023-05-24T20:50:46.330Z,98297.72
2023-05-24T20:53:52.005Z,98456.91
2023-05-24T20:56:56.609Z,98457.41
2023-05-24T20:59:59.966Z,98457.41
2023-05-24T21:03:03.507Z,98466.63
2023-05-24T21:06:08.145Z,98468.28
2023-05-24T21:09:13.347Z,98472.25
2023-05-24T21:12:17.857Z,98471.31
2023-05-24T21:15:21.080Z,98477.75
2023-05-24T21:18:24.424Z,98478.91
2023-05-24T21:21:27.673Z,98484.75
2023-05-24T21:24:30.810Z,98484.97
2023-05-24T21:27:35.290Z,98487.13
2023-05-24T21:34:32.743Z,98494.13
2023-05-24T21:37:35.872Z,98497.34
2023-05-24T21:40:39.221Z,98496.94
2023-05-24T21:43:42.865Z,98498.13
2023-05-24T21:46:46.064Z,98507.47
2023-05-24T21:49:51.327Z,98511.63
2023-05-24T21:52:54.541Z,98501.28
2023-05-24T21:55:58.371Z,98501.78
2023-05-24T21:59:01.585Z,98506.19
2023-05-24T22:02:05.213Z,98519.97
2023-05-24T22:05:10.440Z,98516.50
2023-05-24T22:08:13.604Z,98522.09
2023-05-24T22:11:16.843Z,98528.34
2023-05-24T22:14:20.123Z,98527.59
2023-05-24T22:17:24.753Z,98531.75
2023-05-24T22:20:31.071Z,98531.22
2023-05-24T22:23:34.315Z,98533.34
2023-05-24T22:26:38.161Z,98532.84
2023-05-24T22:29:41.402Z,98533.28
2023-05-24T22:32:44.797Z,98526.84
2023-05-24T22:35:49.373Z,98530.44
2023-05-24T22:38:52.570Z,98530.97
2023-05-24T22:41:56.013Z,98534.22
2023-05-24T22:44:59.266Z,98544.63
2023-05-24T22:48:03.453Z,98537.22
2023-05-24T22:51:12.017Z,98530.41
2023-05-24T22:54:15.716Z,98532.34
2023-05-24T22:57:21.553Z,98535.31
2023-05-24T23:00:24.956Z,98534.97
2023-05-24T23:03:29.275Z,98536.56
2023-05-24T23:06:37.180Z,98538.38
2023-05-24T23:09:41.533Z,98531.63
2023-05-24T23:12:44.567Z,98525.53
2023-05-24T23:15:48.471Z,98528.03
2023-05-24T23:18:51.830Z,98533.97
2023-05-24T23:21:56.644Z,98533.44
2023-05-24T23:24:59.753Z,98526.22
2023-05-24T23:28:03.182Z,98526.69
2023-05-24T23:31:06.394Z,98532.31
2023-05-24T23:34:09.566Z,98528.44
2023-05-24T23:37:14.086Z,98530.22
2023-05-24T23:40:17.309Z,98533.28
2023-05-24T23:43:20.589Z,98527.19
2023-05-24T23:46:23.893Z,98530.06
2023-05-24T23:49:27.214Z,98535.72
2023-05-24T23:52:31.781Z,98541.38
2023-05-24T23:55:35.413Z,98534.44
2023-05-24T23:58:38.711Z,98532.97
